Time;durP1;ratioP1;P1;durP2;ratioP2;P2;SDS_P1;SDS_P2;PMS_P1;PMS_P2;Temp;Humidity;BMP_temperature;BMP_pressure;BME280_temperature;BME280_humidity;BME280_pressure;Samples;Min_cycle;Max_cycle;Signal;HPM_P1;HPM_P2
2022/02/10 00:35:38;;;;;;;5.35;4.35;;;;;;;0.69;72.41;97461.94;5092850;28;20035;-62
2022/02/10 00:38:01;;;;;;;6.63;4.95;;;;;;;0.74;73.05;97454.31;5091994;28;20032;-62
2022/02/10 00:40:32;;;;;;;6.20;4.50;;;;;;;0.66;72.82;97461.91;5092459;28;20047;-62
2022/02/10 00:43:00;;;;;;;6.40;3.75;;;;;;;0.54;72.28;97454.84;5092417;28;20107;-62
2022/02/10 00:45:29;;;;;;;7.60;4.63;;;;;;;0.51;72.71;97467.66;5092616;28;20024;-62
2022/02/10 00:48:01;;;;;;;5.07;4.13;;;;;;;0.48;73.18;97470.22;5092526;28;20070;-61
2022/02/10 00:50:29;;;;;;;5.07;3.45;;;;;;;0.46;72.74;97466.72;5092662;28;20020;-62
2022/02/10 00:53:21;;;;;;;4.47;3.85;;;;;;;0.37;73.42;97468.28;5092434;28;20028;-62
2022/02/10 00:55:44;;;;;;;7.22;4.32;;;;;;;0.32;73.25;97462.22;5093135;28;20044;-62
2022/02/10 00:58:18;;;;;;;6.93;4.45;;;;;;;0.30;74.23;97466.44;5096167;28;20485;-62
2022/02/10 01:14:01;;;;;;;6.03;5.22;;;;;;;0.02;74.59;97472.78;5096117;28;20078;-62
2022/02/10 01:30:09;;;;;;;4.25;3.20;;;;;;;-0.39;73.66;97472.88;5095874;28;20523;-62
2022/02/10 01:32:39;;;;;;;4.85;3.55;;;;;;;-0.49;73.48;97468.38;5095487;28;20016;-62
2022/02/10 01:35:08;;;;;;;5.60;3.55;;;;;;;-0.56;73.65;97469.09;5095510;28;20032;-62
2022/02/10 01:37:35;;;;;;;5.47;4.00;;;;;;;-0.64;74.13;97476.63;5095334;28;20051;-62
2022/02/10 01:40:10;;;;;;;6.82;3.13;;;;;;;-0.68;74.45;97480.00;5095159;28;20048;-62
2022/02/10 02:04:20;;;;;;;6.38;3.63;;;;;;;-0.98;74.92;97493.88;5095149;28;20042;-62
2022/02/10 02:06:48;;;;;;;4.57;3.08;;;;;;;-0.96;75.50;97502.50;5094377;28;20028;-62
2022/02/10 02:09:15;;;;;;;4.18;2.92;;;;;;;-1.05;76.83;97501.44;5094846;28;20027;-62
2022/02/10 02:11:53;;;;;;;3.63;3.08;;;;;;;-1.01;76.48;97507.53;5094756;28;20108;-62
2022/02/10 02:14:21;;;;;;;11.93;5.25;;;;;;;-1.03;76.24;97507.50;5094608;28;20039;-62
2022/02/10 02:16:51;;;;;;;5.88;3.88;;;;;;;-0.93;75.93;97510.28;5094599;28;20479;-62
2022/02/10 02:19:18;;;;;;;6.13;4.00;;;;;;;-0.97;75.35;97513.63;5094433;28;20047;-62
2022/02/10 02:21:44;;;;;;;7.47;4.07;;;;;;;-0.94;75.10;97505.97;5094571;28;20081;-62
2022/02/10 02:24:20;;;;;;;6.15;3.35;;;;;;;-0.95;75.30;97505.09;5094390;28;20177;-62
2022/02/10 02:26:47;;;;;;;3.50;3.05;;;;;;;-1.08;75.83;97492.81;5094558;28;20103;-62
2022/02/10 02:29:14;;;;;;;8.20;4.05;;;;;;;-1.04;76.08;97502.31;5094266;28;20028;-62
2022/02/10 02:31:49;;;;;;;7.53;3.80;;;;;;;-1.04;76.09;97499.75;5094360;28;20120;-62
2022/02/10 03:04:26;;;;;;;7.15;3.42;;;;;;;-1.27;77.92;97510.31;5078644;28;20166;-62
2022/02/10 03:06:55;;;;;;;3.85;3.45;;;;;;;-1.23;77.91;97507.03;5093459;28;20040;-62
2022/02/10 03:09:25;;;;;;;5.35;4.10;;;;;;;-1.24;77.58;97509.56;5093763;28;20199;-62
2022/02/10 03:11:50;;;;;;;6.00;3.45;;;;;;;-1.33;77.28;97516.19;5093621;28;20065;-62
2022/02/10 03:14:21;;;;;;;3.65;2.95;;;;;;;-1.36;77.19;97505.84;5093433;28;20103;-62
2022/02/10 03:22:19;;;;;;;3.90;3.20;;;;;;;-1.25;77.86;97511.25;5093469;28;20028;-62
2022/02/10 04:08:25;;;;;;;5.18;3.45;;;;;;;-1.68;78.13;97529.84;5093007;28;20082;-62
2022/02/10 04:11:12;;;;;;;4.38;3.00;;;;;;;-1.67;77.52;97534.16;5093066;28;20032;-62
2022/02/10 04:16:13;;;;;;;3.90;3.03;;;;;;;-1.63;76.73;97544.50;5092855;28;20032;-62
2022/02/10 04:19:10;;;;;;;6.40;3.13;;;;;;;-1.65;76.54;97544.47;5092691;28;20048;-62
2022/02/10 04:24:24;;;;;;;5.75;2.78;;;;;;;-1.74;76.59;97537.41;5092819;28;20036;-63
2022/02/10 05:35:15;;;;;;;5.78;3.35;;;;;;;-2.01;77.67;97570.84;5095565;28;20028;-63
2022/02/10 05:37:43;;;;;;;4.10;3.65;;;;;;;-2.06;77.70;97569.03;5095345;28;20028;-63
2022/02/10 05:40:18;;;;;;;6.00;4.20;;;;;;;-2.07;77.97;97569.88;5095119;28;20035;-63
2022/02/10 05:45:38;;;;;;;5.25;3.97;;;;;;;-2.18;79.37;97584.06;5095294;28;20024;-63
2022/02/10 05:49:12;;;;;;;5.65;3.85;;;;;;;-2.05;79.56;97582.69;5095299;28;20110;-62
2022/02/10 05:56:12;;;;;;;3.72;3.38;;;;;;;-1.92;80.12;97574.53;5095150;28;20024;-63
2022/02/10 06:01:54;;;;;;;4.43;3.45;;;;;;;-1.42;80.35;97578.44;5073321;28;20044;-63
2022/02/10 06:53:46;;;;;;;2.50;2.10;;;;;;;19.28;27.00;97594.13;5093910;28;20028;-64
2022/02/10 07:04:19;;;;;;;2.80;1.92;;;;;;;20.78;25.88;97587.97;5093930;28;20024;-64
2022/02/10 07:09:19;;;;;;;2.90;2.15;;;;;;;22.00;24.60;97593.44;5093788;28;20024;-63
2022/02/10 07:14:54;;;;;;;3.65;2.10;;;;;;;23.05;23.12;97596.91;5093607;28;20024;-64
2022/02/10 07:55:41;;;;;;;3.28;2.60;;;;;;;25.30;22.30;97590.59;5093505;28;20035;-66
2022/02/10 08:55:51;;;;;;;2.25;2.05;;;;;;;14.80;33.87;97585.06;5096424;28;20400;-64
2022/02/10 09:01:28;;;;;;;2.17;1.92;;;;;;;13.50;35.62;97594.88;5096157;28;20036;-63
2022/02/10 10:00:21;;;;;;;2.22;2.00;;;;;;;12.47;38.05;97553.38;5095060;28;20024;-63
2022/02/10 10:03:01;;;;;;;2.53;1.98;;;;;;;12.51;37.09;97540.13;5094856;28;20024;-63
2022/02/10 10:57:04;;;;;;;2.63;2.20;;;;;;;12.45;37.37;97464.19;5093913;28;20039;-62
2022/02/10 10:59:40;;;;;;;2.78;2.40;;;;;;;12.34;38.60;97469.75;5093963;28;20031;-63
2022/02/10 11:06:36;;;;;;;8.43;2.80;;;;;;;12.32;38.83;97465.47;5093787;28;20561;-63
2022/02/10 11:39:08;;;;;;;3.83;2.80;;;;;;;11.93;39.77;97419.38;5092976;28;20034;-63
2022/02/10 12:43:49;;;;;;;5.55;2.15;;;;;;;12.06;39.66;97367.41;5092678;28;20231;-63
2022/02/10 13:23:17;;;;;;;2.33;1.85;;;;;;;12.03;40.49;97360.50;5096500;28;20092;-63
2022/02/10 13:49:02;;;;;;;3.80;2.70;;;;;;;11.50;41.03;97360.28;5095641;28;20063;-63
2022/02/10 14:16:34;;;;;;;4.45;3.70;;;;;;;11.03;42.55;97350.25;5094772;28;20107;-63
2022/02/10 14:18:53;;;;;;;3.90;3.33;;;;;;;11.06;41.98;97352.78;5089440;28;20047;-63
2022/02/10 14:21:23;;;;;;;4.75;3.65;;;;;;;11.04;42.50;97356.31;5094542;28;20503;-63
2022/02/10 14:26:33;;;;;;;4.53;3.90;;;;;;;10.93;42.26;97357.47;5094510;28;20028;-63
2022/02/10 14:28:59;;;;;;;4.32;3.88;;;;;;;10.84;42.69;97355.13;5094572;28;20489;-62
2022/02/10 14:31:25;;;;;;;5.28;4.20;;;;;;;10.72;43.03;97364.13;5094437;28;20095;-63
2022/02/10 14:33:52;;;;;;;9.65;5.38;;;;;;;10.79;42.84;97355.22;5094394;28;20028;-62
2022/02/10 14:36:33;;;;;;;12.68;6.65;;;;;;;10.78;42.77;97355.28;5094245;28;20046;-63
2022/02/10 14:39:23;;;;;;;8.25;6.10;;;;;;;10.81;43.02;97352.56;5094559;28;20027;-62
2022/02/10 16:10:45;;;;;;;5.38;3.63;;;;;;;8.92;45.84;97346.22;5093150;28;20119;-63
2022/02/10 16:18:48;;;;;;;18.50;5.78;;;;;;;6.79;49.79;97353.47;5092877;28;20057;-63
2022/02/10 16:21:26;;;;;;;5.53;2.92;;;;;;;6.62;50.38;97351.03;5092758;28;20039;-63
2022/02/10 16:23:59;;;;;;;4.15;2.85;;;;;;;6.47;50.63;97359.84;5092748;28;20107;-63
2022/02/10 16:26:35;;;;;;;3.30;2.50;;;;;;;6.34;51.07;97357.31;5095533;28;20035;-63
2022/02/10 16:29:02;;;;;;;7.18;2.70;;;;;;;6.15;51.24;97354.00;5096843;28;20067;-63
2022/02/10 16:31:29;;;;;;;8.02;2.67;;;;;;;6.02;51.71;97361.00;5096673;28;20469;-63
2022/02/10 16:33:57;;;;;;;5.38;2.35;;;;;;;5.90;51.74;97370.56;5096838;28;20059;-63
2022/02/10 16:36:28;;;;;;;7.63;2.97;;;;;;;5.71;52.32;97367.22;5096687;28;20070;-62
2022/02/10 16:38:54;;;;;;;2.97;2.40;;;;;;;5.55;52.76;97367.31;5095740;28;20044;-63
2022/02/10 16:41:20;;;;;;;4.13;2.30;;;;;;;5.41;53.20;97369.97;5096574;28;20118;-63
2022/02/10 16:43:46;;;;;;;6.00;2.63;;;;;;;5.26;53.26;97378.66;5096483;28;20103;-62
2022/02/10 16:46:12;;;;;;;7.05;2.72;;;;;;;5.12;53.66;97378.69;5096439;28;20103;-63
2022/02/10 16:48:40;;;;;;;7.82;2.63;;;;;;;4.85;54.50;97374.44;5096466;28;20059;-63
2022/02/10 16:51:09;;;;;;;3.70;2.50;;;;;;;4.78;54.53;97376.19;5096386;28;20081;-63
2022/02/10 16:53:40;;;;;;;4.68;2.55;;;;;;;4.67;54.83;97369.28;5096238;28;20028;-63
2022/02/10 16:56:13;;;;;;;2.88;2.58;;;;;;;4.55;54.91;97370.16;5096260;28;20060;-63
2022/02/10 16:58:49;;;;;;;2.80;2.38;;;;;;;4.52;55.16;97375.34;5096412;28;20115;-63
2022/02/10 17:04:34;;;;;;;5.68;2.70;;;;;;;4.30;55.92;97377.06;5076424;28;20055;-62
2022/02/10 17:28:40;;;;;;;3.15;2.72;;;;;;;3.47;58.81;97376.91;5095784;28;20031;-62
2022/02/10 17:34:04;;;;;;;2.90;2.60;;;;;;;3.29;59.06;97370.78;5095776;28;20028;-62
2022/02/10 17:36:46;;;;;;;7.32;2.67;;;;;;;3.15;59.65;97369.84;5094910;28;20028;-62
2022/02/10 17:53:03;;;;;;;3.05;2.60;;;;;;;2.96;59.94;97374.06;5095593;28;20128;-62
2022/02/10 17:55:31;;;;;;;4.75;2.50;;;;;;;2.95;60.38;97367.19;5095242;28;20119;-62
2022/02/10 17:57:58;;;;;;;3.55;2.10;;;;;;;2.82;60.91;97368.81;5095153;28;20024;-62
2022/02/10 18:00:25;;;;;;;4.07;2.28;;;;;;;2.80;60.67;97373.97;5095008;28;20052;-62
2022/02/10 18:02:56;;;;;;;3.80;2.08;;;;;;;2.76;61.40;97378.28;5094922;28;20107;-63
2022/02/10 18:08:17;;;;;;;5.43;2.50;;;;;;;2.70;61.36;97372.19;5056018;28;20039;-62
2022/02/10 18:11:25;;;;;;;4.22;2.90;;;;;;;2.47;62.61;97372.91;5094717;28;20059;-62
2022/02/10 18:16:17;;;;;;;3.97;2.90;;;;;;;2.23;63.44;97369.25;5094866;28;20024;-62
2022/02/10 18:18:51;;;;;;;7.18;2.40;;;;;;;2.11;63.86;97370.88;5094433;28;20062;-62
2022/02/10 18:26:19;;;;;;;3.83;2.25;;;;;;;2.16;63.30;97370.06;5094629;28;20078;-62
2022/02/10 18:29:01;;;;;;;4.55;2.17;;;;;;;2.08;63.80;97370.84;5094373;28;20060;-62
2022/02/10 19:09:37;;;;;;;3.40;2.08;;;;;;;1.42;66.97;97387.38;5093815;28;20020;-62
2022/02/10 19:12:13;;;;;;;2.85;2.35;;;;;;;1.35;66.80;97386.41;5093689;28;20378;-62
2022/02/10 19:14:39;;;;;;;3.90;2.40;;;;;;;1.24;67.31;97380.28;5093745;28;20032;-62
2022/02/10 19:17:06;;;;;;;6.13;2.50;;;;;;;1.12;67.87;97380.97;5093533;28;20028;-62
2022/02/10 19:19:32;;;;;;;6.03;2.58;;;;;;;1.11;68.11;97380.09;5093484;28;20056;-62
2022/02/10 19:21:58;;;;;;;3.03;2.17;;;;;;;1.17;67.58;97388.78;5093329;28;20466;-62
2022/02/10 19:24:24;;;;;;;3.42;2.20;;;;;;;1.17;66.84;97381.03;5093606;28;20017;-62
2022/02/10 19:26:50;;;;;;;4.55;2.60;;;;;;;1.11;67.20;97384.38;5093483;28;20022;-62
2022/02/10 19:29:24;;;;;;;3.40;2.38;;;;;;;0.96;67.32;97382.50;5093580;28;20062;-62
2022/02/10 19:31:52;;;;;;;5.85;2.50;;;;;;;0.97;68.03;97382.47;5093670;28;20028;-62
2022/02/10 19:34:17;;;;;;;3.70;2.60;;;;;;;1.07;67.98;97385.19;5093371;28;20047;-63
2022/02/10 19:36:43;;;;;;;5.93;2.90;;;;;;;1.05;67.59;97384.31;5093223;28;20473;-62
2022/02/10 19:39:14;;;;;;;5.30;3.25;;;;;;;1.03;68.00;97380.84;5093378;28;20047;-62
2022/02/10 19:41:43;;;;;;;5.43;2.50;;;;;;;1.00;67.81;97377.38;5093291;28;20374;-62
2022/02/10 19:44:12;;;;;;;7.05;2.97;;;;;;;0.96;68.20;97375.59;5093218;28;20032;-62
2022/02/10 19:46:38;;;;;;;4.22;2.80;;;;;;;0.97;68.09;97374.75;5093177;28;20114;-62
2022/02/10 19:49:04;;;;;;;3.25;2.95;;;;;;;0.96;68.90;97375.59;5093143;28;20031;-62
2022/02/10 19:51:30;;;;;;;10.45;3.10;;;;;;;0.96;68.55;97374.75;5093283;28;20111;-62
2022/02/10 19:53:57;;;;;;;3.90;2.78;;;;;;;1.00;68.16;97376.53;5093220;28;20028;-62
2022/02/10 19:56:28;;;;;;;4.75;3.17;;;;;;;0.98;68.73;97366.19;5093021;28;20076;-62
2022/02/10 19:58:55;;;;;;;;;;;;;;;0.84;69.29;97370.31;5093477;28;20035;-62
2022/02/10 20:01:27;;;;;;;6.05;3.25;;;;;;;0.79;69.07;97364.22;5095543;28;19915;-62
2022/02/10 20:03:54;;;;;;;5.53;2.90;;;;;;;0.75;69.17;97369.31;5097236;28;20035;-62
2022/02/10 20:06:20;;;;;;;3.58;2.85;;;;;;;0.76;69.08;97370.19;5097285;28;20385;-62
2022/02/10 20:08:47;;;;;;;4.22;2.70;;;;;;;0.82;68.88;97377.13;5097285;28;20021;-62
2022/02/10 20:11:15;;;;;;;4.72;3.08;;;;;;;0.81;68.58;97368.53;5097166;28;20484;-62
2022/02/10 20:13:44;;;;;;;4.07;3.30;;;;;;;0.73;68.60;97372.72;5097082;28;20055;-62
2022/02/10 20:16:13;;;;;;;13.80;3.45;;;;;;;0.68;68.62;97367.50;5096985;28;20031;-62
2022/02/10 20:18:39;;;;;;;3.95;3.00;;;;;;;0.52;69.19;97370.69;5096635;28;20074;-62
2022/02/10 20:21:05;;;;;;;4.38;3.10;;;;;;;0.49;69.53;97374.09;5096787;28;20536;-63
2022/02/10 20:23:33;;;;;;;5.47;3.33;;;;;;;0.47;69.20;97362.88;5096906;28;20016;-62
2022/02/10 20:26:01;;;;;;;4.75;3.35;;;;;;;0.35;69.85;97366.13;5097023;28;20022;-62
2022/02/10 20:28:29;;;;;;;7.35;3.53;;;;;;;0.23;69.99;97356.50;5096940;28;20126;-62
2022/02/10 20:30:55;;;;;;;3.85;3.03;;;;;;;0.23;70.62;97352.25;5096798;28;20102;-62
2022/02/10 20:33:25;;;;;;;7.88;3.50;;;;;;;0.20;70.57;97357.34;5096716;28;20032;-62
2022/02/10 20:35:55;;;;;;;5.53;3.63;;;;;;;0.16;70.69;97350.41;5096678;28;20024;-62
2022/02/10 20:38:30;;;;;;;2.67;2.42;;;;;;;0.14;71.37;97362.38;5096610;28;20036;-62
2022/02/10 20:41:00;;;;;;;6.65;3.85;;;;;;;0.12;71.48;97359.78;5096670;28;20032;-62
2022/02/10 20:43:27;;;;;;;9.60;3.47;;;;;;;0.11;71.17;97350.31;5096667;28;20538;-62
2022/02/10 20:45:57;;;;;;;14.52;3.75;;;;;;;0.14;70.90;97349.50;5096642;28;20031;-62
2022/02/10 20:48:24;;;;;;;5.03;2.95;;;;;;;0.16;70.92;97349.53;5096293;28;20028;-62
2022/02/10 20:50:54;;;;;;;6.15;3.33;;;;;;;0.07;71.81;97351.13;5095845;28;20071;-62
2022/02/10 20:53:21;;;;;;;2.78;2.20;;;;;;;0.10;71.66;97346.03;5096430;28;20066;-62
2022/02/10 20:55:48;;;;;;;4.72;3.00;;;;;;;0.12;70.92;97339.19;5096286;28;20028;-62
2022/02/10 20:58:13;;;;;;;3.25;2.45;;;;;;;0.10;71.39;97340.88;5096227;28;20028;-62
2022/02/10 21:00:39;;;;;;;5.45;3.17;;;;;;;0.04;71.27;97347.63;5096038;28;20021;-62
2022/02/10 21:03:06;;;;;;;5.18;3.40;;;;;;;0.10;71.59;97345.16;5096246;28;20421;-62
2022/02/10 21:05:39;;;;;;;6.95;3.70;;;;;;;0.15;71.61;97340.09;5096183;28;20028;-62
2022/02/10 21:11:03;;;;;;;3.65;2.85;;;;;;;0.27;70.41;97337.69;5079697;28;20044;-62
2022/02/10 21:13:34;;;;;;;3.75;2.28;;;;;;;0.23;70.35;97330.78;5095917;28;20104;-62
2022/02/10 21:16:01;;;;;;;3.33;2.90;;;;;;;0.23;70.22;97329.06;5095797;28;20051;-62
2022/02/10 21:18:28;;;;;;;4.70;2.53;;;;;;;0.13;70.03;97327.19;5095589;28;20040;-62
2022/02/10 21:21:01;;;;;;;3.67;2.70;;;;;;;0.12;69.84;97317.75;5095644;28;20020;-62
2022/02/10 21:23:33;;;;;;;4.65;2.63;;;;;;;0.07;70.34;97317.69;5095719;28;20028;-62
2022/02/10 21:26:01;;;;;;;4.82;2.22;;;;;;;0.05;70.12;97321.03;5095698;28;20451;-62
2022/02/10 21:28:33;;;;;;;5.50;3.45;;;;;;;0.08;70.25;97318.50;5095539;28;20470;-62
2022/02/10 21:31:03;;;;;;;7.03;3.60;;;;;;;0.03;70.52;97318.44;5095661;28;20031;-62
2022/02/10 21:33:41;;;;;;;9.32;5.22;;;;;;;0.04;70.58;97319.31;5095561;28;20035;-62
2022/02/10 21:38:55;;;;;;;4.05;3.08;;;;;;;0.04;70.53;97320.19;5095469;28;20398;-63
2022/02/10 21:58:11;;;;;;;3.63;2.72;;;;;;;-0.37;71.80;97312.63;5095397;28;20027;-62
2022/02/10 22:08:47;;;;;;;3.60;2.78;;;;;;;-0.54;72.39;97306.31;5095005;28;20028;-62
2022/02/10 22:18:50;;;;;;;3.15;2.85;;;;;;;-0.67;73.21;97300.09;5094378;28;20044;-62
2022/02/10 22:21:27;;;;;;;5.10;2.20;;;;;;;-0.73;73.51;97299.13;5094717;28;20452;-62
2022/02/10 22:23:52;;;;;;;5.32;2.70;;;;;;;-0.72;73.45;97296.56;5094304;28;20248;-62
2022/02/10 22:26:30;;;;;;;5.40;2.55;;;;;;;-0.80;73.72;97285.28;5094561;28;20537;-62
2022/02/10 22:29:08;;;;;;;4.55;3.30;;;;;;;-0.85;74.18;97282.63;5094509;28;20028;-62
2022/02/10 22:31:44;;;;;;;2.97;2.35;;;;;;;-0.83;74.18;97278.41;5094432;28;20458;-62
2022/02/10 22:36:56;;;;;;;;;;;;;;;-0.86;73.64;97280.03;5094806;28;20477;-62
2022/02/10 22:39:22;;;;;;;3.47;2.88;;;;;;;-1.02;74.47;97275.44;5094330;28;19997;-62
2022/02/10 22:41:48;;;;;;;3.85;2.75;;;;;;;-1.04;74.59;97268.56;5094155;28;20055;-62
2022/02/10 22:44:14;;;;;;;5.25;2.80;;;;;;;-1.03;74.91;97268.59;5094335;28;20043;-62
2022/02/10 22:46:40;;;;;;;5.28;3.65;;;;;;;-0.99;75.22;97266.97;5094285;28;20020;-62
2022/02/10 22:49:06;;;;;;;4.88;3.60;;;;;;;-1.01;74.84;97268.63;5094055;28;20042;-63
2022/02/10 22:51:34;;;;;;;3.60;2.70;;;;;;;-0.95;74.77;97267.88;5093954;28;20052;-62
2022/02/10 22:54:01;;;;;;;4.05;2.47;;;;;;;-0.94;74.39;97267.91;5094035;28;20026;-62
2022/02/10 22:56:29;;;;;;;3.08;2.75;;;;;;;-0.93;74.29;97266.22;5093906;28;20466;-62
2022/02/10 22:59:00;;;;;;;3.60;2.70;;;;;;;-1.08;74.94;97267.63;5093893;28;20482;-62
2022/02/10 23:01:26;;;;;;;3.63;2.63;;;;;;;-1.24;75.36;97253.63;5093885;28;20032;-62
2022/02/10 23:03:53;;;;;;;3.40;3.10;;;;;;;-1.12;75.03;97258.13;5093810;28;20074;-62
2022/02/10 23:06:19;;;;;;;5.90;3.03;;;;;;;-1.05;74.77;97261.69;5093772;28;20099;-62
2022/02/10 23:08:44;;;;;;;3.25;2.67;;;;;;;-1.04;74.60;97255.72;5093944;28;20107;-62
2022/02/10 23:11:13;;;;;;;3.00;2.42;;;;;;;-1.05;74.40;97254.84;5093757;28;20062;-62
2022/02/10 23:13:44;;;;;;;3.72;2.58;;;;;;;-1.04;74.39;97254.03;5093749;28;20107;-62
2022/02/10 23:16:09;;;;;;;4.57;2.53;;;;;;;-1.06;75.24;97244.53;5093633;28;20782;-62
2022/02/10 23:18:36;;;;;;;4.68;2.88;;;;;;;-1.16;75.42;97238.38;5093386;28;20512;-62
2022/02/10 23:21:09;;;;;;;3.42;2.88;;;;;;;-1.23;75.26;97239.09;5093491;28;20028;-62
2022/02/10 23:23:36;;;;;;;2.58;2.13;;;;;;;-1.21;74.96;97225.44;5093473;28;20032;-62
2022/02/10 23:26:04;;;;;;;3.33;2.75;;;;;;;-1.28;74.70;97226.16;5075677;28;20020;-62
2022/02/10 23:28:38;;;;;;;4.00;2.90;;;;;;;-1.35;74.83;97221.72;5093397;28;20027;-62
2022/02/10 23:31:07;;;;;;;2.92;2.45;;;;;;;-1.28;74.70;97221.88;5076412;28;20477;-62
2022/02/10 23:33:36;;;;;;;4.65;2.85;;;;;;;-1.32;75.30;97217.50;5093332;28;20040;-62
2022/02/10 23:36:53;;;;;;;3.13;2.50;;;;;;;-1.40;76.54;97216.50;5092497;28;20028;-62
2022/02/10 23:44:26;;;;;;;3.47;2.67;;;;;;;-1.41;76.89;97213.06;5061969;28;20036;-62
2022/02/10 23:46:53;;;;;;;4.15;2.72;;;;;;;-1.46;77.47;97208.66;5093291;28;20024;-62
2022/02/10 23:49:20;;;;;;;9.43;2.47;;;;;;;-1.48;77.06;97208.63;5093135;28;20024;-62
2022/02/10 23:51:54;;;;;;;3.97;2.83;;;;;;;-1.39;76.14;97207.94;5093099;28;20028;-62
2022/02/10 23:54:20;;;;;;;4.38;2.72;;;;;;;-1.42;76.84;97200.19;5093177;28;20021;-62
2022/02/10 23:56:52;;;;;;;4.05;2.55;;;;;;;-1.39;77.59;97200.25;5093092;28;20028;-62
